Time;durP1;ratioP1;P1;durP2;ratioP2;P2;SDS_P1;SDS_P2;PMS_P1;PMS_P2;Temp;Humidity;BMP_temperature;BMP_pressure;BME280_temperature;BME280_humidity;BME280_pressure;Samples;Min_cycle;Max_cycle;Signal;HPM_P1;HPM_P2
2023/12/03 00:01:54;;;;;;;32.63;31.23;;;19.60;50.40;;;;;;5051228;28;20444;-73
2023/12/03 00:04:21;;;;;;;31.67;30.53;;;19.60;50.40;;;;;;5051137;28;20447;-72
2023/12/03 00:06:50;;;;;;;33.83;32.53;;;19.60;50.40;;;;;;5050331;28;20511;-71
2023/12/03 00:09:17;;;;;;;34.23;32.93;;;19.60;50.40;;;;;;5050191;28;20436;-72
2023/12/03 00:11:44;;;;;;;32.80;31.47;;;19.60;50.40;;;;;;5050982;28;20496;-72
2023/12/03 00:14:11;;;;;;;32.80;31.50;;;19.60;50.40;;;;;;5050840;28;20515;-72
2023/12/03 00:16:38;;;;;;;32.10;30.90;;;19.60;50.40;;;;;;5050873;28;20476;-71
2023/12/03 00:19:05;;;;;;;31.97;30.80;;;19.60;50.40;;;;;;5051036;28;20475;-72
2023/12/03 00:21:32;;;;;;;32.43;31.03;;;19.60;50.40;;;;;;5051627;28;20492;-72
2023/12/03 00:24:00;;;;;;;33.37;32.07;;;19.60;50.40;;;;;;5054676;28;20468;-72
2023/12/03 00:26:27;;;;;;;32.73;31.43;;;19.50;50.40;;;;;;5054725;28;20874;-73
2023/12/03 00:28:54;;;;;;;33.10;31.90;;;19.60;50.50;;;;;;5054784;28;20472;-72
2023/12/03 00:31:21;;;;;;;34.10;32.67;;;19.50;50.50;;;;;;5054785;28;20510;-71
2023/12/03 00:33:48;;;;;;;32.73;31.63;;;19.50;50.50;;;;;;5054512;28;20919;-72
2023/12/03 00:36:14;;;;;;;33.07;31.77;;;19.50;50.50;;;;;;5054388;28;20467;-72
2023/12/03 00:38:41;;;;;;;32.20;31.03;;;19.50;50.60;;;;;;5054584;28;20482;-72
2023/12/03 00:41:10;;;;;;;32.20;31.00;;;19.50;50.70;;;;;;5054307;28;20498;-72
2023/12/03 00:43:37;;;;;;;32.13;30.93;;;19.50;50.80;;;;;;5054378;28;20881;-71
2023/12/03 00:46:04;;;;;;;32.03;30.93;;;19.50;50.90;;;;;;5046152;28;20483;-72
2023/12/03 00:48:31;;;;;;;32.43;31.23;;;19.50;51.30;;;;;;5054467;28;20474;-73
2023/12/03 00:50:58;;;;;;;32.50;31.30;;;19.50;51.70;;;;;;5053998;28;20500;-72
2023/12/03 00:53:24;;;;;;;32.30;31.10;;;19.60;52.10;;;;;;5054408;28;20472;-72
2023/12/03 00:55:52;;;;;;;32.43;31.23;;;19.50;52.20;;;;;;5054104;28;20476;-72
2023/12/03 00:58:21;;;;;;;32.57;31.37;;;19.50;52.20;;;;;;5054257;28;20448;-72
2023/12/03 01:00:48;;;;;;;32.70;31.33;;;19.50;52.30;;;;;;5053876;28;20550;-72
2023/12/03 01:03:14;;;;;;;32.93;31.50;;;19.50;52.40;;;;;;5054216;28;20460;-72
2023/12/03 01:05:40;;;;;;;32.70;31.50;;;19.50;52.60;;;;;;5054010;28;20464;-71
2023/12/03 01:08:07;;;;;;;33.10;31.80;;;19.50;52.70;;;;;;5054026;28;20526;-72
2023/12/03 01:10:34;;;;;;;32.60;31.30;;;19.50;52.70;;;;;;5053980;28;20487;-73
2023/12/03 01:13:01;;;;;;;33.00;31.60;;;19.50;52.90;;;;;;5053764;28;20468;-72
2023/12/03 01:15:29;;;;;;;32.27;31.07;;;19.40;53.10;;;;;;5053954;28;20511;-72
2023/12/03 01:17:56;;;;;;;33.37;32.00;;;19.50;53.20;;;;;;5053811;28;20476;-72
2023/12/03 01:20:23;;;;;;;32.60;31.40;;;19.50;53.20;;;;;;5053732;28;20484;-73
2023/12/03 01:22:50;;;;;;;32.10;30.90;;;19.40;53.30;;;;;;5053598;28;20810;-73
2023/12/03 01:25:17;;;;;;;33.37;32.00;;;19.40;53.30;;;;;;5053807;28;20471;-72
2023/12/03 01:27:44;;;;;;;32.10;30.87;;;19.40;53.40;;;;;;5053527;28;20475;-72
2023/12/03 01:30:11;;;;;;;32.73;31.53;;;19.40;53.40;;;;;;5053574;28;20495;-72
2023/12/03 01:32:41;;;;;;;33.33;32.13;;;19.40;53.50;;;;;;5053243;28;20475;-72
2023/12/03 01:35:08;;;;;;;32.93;31.50;;;19.40;53.50;;;;;;5045500;28;20475;-72
2023/12/03 01:37:35;;;;;;;32.90;31.60;;;19.40;53.50;;;;;;5053531;28;20476;-72
2023/12/03 01:40:02;;;;;;;32.07;30.87;;;19.40;53.50;;;;;;5053277;28;20503;-72
2023/12/03 01:42:29;;;;;;;32.87;31.67;;;19.40;53.90;;;;;;5053209;28;20529;-71
2023/12/03 01:44:56;;;;;;;33.57;32.27;;;19.40;53.40;;;;;;5053174;28;20468;-72
2023/12/03 01:47:23;;;;;;;32.40;31.20;;;19.40;53.50;;;;;;5059506;28;20488;-72
2023/12/03 01:49:52;;;;;;;32.17;31.07;;;19.40;53.40;;;;;;5053206;28;20492;-71
2023/12/03 01:52:20;;;;;;;32.17;31.07;;;19.40;53.40;;;;;;5059080;28;20948;-72
2023/12/03 01:54:48;;;;;;;32.20;31.00;;;19.40;53.50;;;;;;5052902;28;20510;-73
2023/12/03 01:57:16;;;;;;;31.83;30.70;;;19.40;53.60;;;;;;5053126;28;20468;-72
2023/12/03 01:59:43;;;;;;;31.63;30.53;;;19.40;53.50;;;;;;5052969;28;20870;-72
2023/12/03 02:02:09;;;;;;;32.80;31.60;;;19.40;53.50;;;;;;5053808;28;20468;-71
2023/12/03 02:04:36;;;;;;;32.67;31.37;;;19.40;53.50;;;;;;5053272;28;20476;-72
2023/12/03 02:07:05;;;;;;;33.10;31.70;;;19.30;53.30;;;;;;5052718;28;20468;-71
2023/12/03 02:09:32;;;;;;;32.60;31.40;;;19.30;53.30;;;;;;5052928;28;20538;-72
2023/12/03 02:11:59;;;;;;;32.87;31.47;;;19.30;53.30;;;;;;5052275;28;20475;-71
2023/12/03 02:14:26;;;;;;;32.43;31.33;;;19.30;53.20;;;;;;5052700;28;20514;-71
2023/12/03 02:16:53;;;;;;;32.07;30.90;;;19.30;53.20;;;;;;5052676;28;20472;-71
2023/12/03 02:19:19;;;;;;;32.27;31.07;;;19.30;53.30;;;;;;5052900;28;20472;-71
2023/12/03 02:21:46;;;;;;;31.87;30.67;;;19.30;53.30;;;;;;5052010;28;20494;-71
2023/12/03 02:24:15;;;;;;;32.27;31.13;;;19.30;53.30;;;;;;5052467;28;20444;-71
2023/12/03 02:26:41;;;;;;;32.80;31.60;;;19.30;53.30;;;;;;5052616;28;20480;-71
2023/12/03 02:29:08;;;;;;;31.93;30.83;;;19.30;53.20;;;;;;5044279;28;20452;-71
2023/12/03 02:31:35;;;;;;;32.47;31.30;;;19.30;53.20;;;;;;5052203;28;20496;-72
2023/12/03 02:34:08;;;;;;;32.27;31.10;;;19.30;53.20;;;;;;5052364;28;20476;-71
2023/12/03 02:36:35;;;;;;;31.80;30.70;;;19.30;53.20;;;;;;5052494;28;20494;-71
2023/12/03 02:39:02;;;;;;;31.87;30.77;;;19.30;53.20;;;;;;5052134;28;20475;-71
2023/12/03 02:41:30;;;;;;;31.70;30.60;;;19.30;53.20;;;;;;5051970;28;20468;-71
2023/12/03 02:43:57;;;;;;;31.87;30.77;;;19.30;53.30;;;;;;5051764;28;20479;-71
2023/12/03 02:46:24;;;;;;;32.00;30.80;;;19.30;53.30;;;;;;5052133;28;20480;-71
2023/12/03 02:48:51;;;;;;;32.70;31.40;;;19.30;53.30;;;;;;5052152;28;20851;-71
2023/12/03 02:51:18;;;;;;;32.47;31.17;;;19.20;53.60;;;;;;5051818;28;20488;-71
2023/12/03 02:53:46;;;;;;;32.50;31.30;;;19.20;53.30;;;;;;5052027;28;20476;-71
2023/12/03 02:56:14;;;;;;;32.37;31.07;;;19.20;53.30;;;;;;5052107;28;20472;-71
2023/12/03 02:58:42;;;;;;;32.53;31.33;;;19.20;53.20;;;;;;5051674;28;20436;-71
2023/12/03 03:01:10;;;;;;;31.60;30.50;;;19.20;53.20;;;;;;5051874;28;20480;-71
2023/12/03 03:03:36;;;;;;;32.23;31.03;;;19.20;53.10;;;;;;5052415;28;20861;-72
2023/12/03 03:06:04;;;;;;;32.87;31.63;;;19.20;53.10;;;;;;5051878;28;20480;-71
2023/12/03 03:08:31;;;;;;;31.80;30.70;;;19.20;53.00;;;;;;5051581;28;20477;-71
2023/12/03 03:10:57;;;;;;;31.70;30.60;;;19.20;53.00;;;;;;5051698;28;20460;-71
2023/12/03 03:13:24;;;;;;;31.97;30.77;;;19.20;53.00;;;;;;5051960;28;20491;-71
2023/12/03 03:15:53;;;;;;;32.10;31.00;;;19.20;53.00;;;;;;5051534;28;20540;-71
2023/12/03 03:18:20;;;;;;;31.53;30.43;;;19.10;52.80;;;;;;5051422;28;20476;-71
2023/12/03 03:20:47;;;;;;;31.83;30.63;;;19.10;52.80;;;;;;5051289;28;21018;-71
2023/12/03 03:23:14;;;;;;;32.57;31.17;;;19.10;52.80;;;;;;5051633;28;20460;-71
2023/12/03 03:25:41;;;;;;;32.90;31.60;;;19.10;52.80;;;;;;5051738;28;20465;-71
2023/12/03 03:28:08;;;;;;;32.20;31.00;;;19.10;52.70;;;;;;5051261;28;20473;-71
2023/12/03 03:30:35;;;;;;;32.57;31.17;;;19.10;52.80;;;;;;5051479;28;20522;-71
2023/12/03 03:33:03;;;;;;;32.73;31.53;;;19.10;52.70;;;;;;5051410;28;20468;-71
2023/12/03 03:35:30;;;;;;;32.47;31.27;;;19.10;52.60;;;;;;5051415;28;20516;-71
2023/12/03 03:37:57;;;;;;;32.33;31.23;;;19.10;52.70;;;;;;5051199;28;20476;-71
2023/12/03 03:40:24;;;;;;;32.50;31.20;;;19.10;52.80;;;;;;5050862;28;20492;-71
2023/12/03 03:42:51;;;;;;;32.00;30.80;;;19.10;52.70;;;;;;5051353;28;20856;-72
2023/12/03 03:45:17;;;;;;;32.10;31.00;;;19.00;52.70;;;;;;5051423;28;20467;-71
2023/12/03 03:47:44;;;;;;;32.73;31.43;;;19.00;52.70;;;;;;5051319;28;20476;-71
2023/12/03 03:50:13;;;;;;;32.37;31.17;;;19.00;52.70;;;;;;5049502;28;20495;-71
2023/12/03 03:52:40;;;;;;;32.73;31.53;;;19.00;52.70;;;;;;5051342;28;20502;-71
2023/12/03 03:55:08;;;;;;;32.70;31.47;;;19.00;52.70;;;;;;5051126;28;20476;-72
2023/12/03 03:57:35;;;;;;;32.70;31.40;;;19.00;52.70;;;;;;5055340;28;20448;-71
2023/12/03 04:00:02;;;;;;;32.10;30.90;;;19.00;52.70;;;;;;5055007;28;20495;-71
2023/12/03 04:02:29;;;;;;;31.70;30.60;;;19.00;52.70;;;;;;5054807;28;20531;-71
2023/12/03 04:04:56;;;;;;;31.80;30.70;;;19.00;52.70;;;;;;5055227;28;20468;-71
2023/12/03 04:07:24;;;;;;;32.47;31.27;;;19.00;52.70;;;;;;5055156;28;20962;-71
2023/12/03 04:09:51;;;;;;;31.80;30.70;;;19.00;52.70;;;;;;5054814;28;20518;-71
2023/12/03 04:12:18;;;;;;;31.80;30.70;;;19.00;52.70;;;;;;5055178;28;20479;-71
2023/12/03 04:14:45;;;;;;;32.10;30.90;;;18.90;52.60;;;;;;5054937;28;20501;-72
2023/12/03 04:17:12;;;;;;;31.63;30.53;;;18.90;52.50;;;;;;5054948;28;20472;-71
2023/12/03 04:19:39;;;;;;;32.03;30.87;;;19.00;52.60;;;;;;5054875;28;20467;-72
2023/12/03 04:22:06;;;;;;;31.90;30.80;;;19.00;52.60;;;;;;5054914;28;20525;-71
2023/12/03 04:24:34;;;;;;;31.63;30.53;;;19.00;52.60;;;;;;5054811;28;20506;-72
2023/12/03 04:27:01;;;;;;;32.00;30.90;;;18.90;52.50;;;;;;5054514;28;20475;-72
2023/12/03 04:29:28;;;;;;;31.37;30.27;;;18.90;53.10;;;;;;5054702;28;20525;-71
2023/12/03 04:31:54;;;;;;;33.07;31.57;;;18.90;52.60;;;;;;5054424;28;20471;-71
2023/12/03 04:34:21;;;;;;;31.27;30.27;;;18.90;52.60;;;;;;5054773;28;20482;-71
2023/12/03 04:36:48;;;;;;;31.80;30.60;;;18.90;53.10;;;;;;5054473;28;20483;-71
2023/12/03 04:39:15;;;;;;;32.50;31.30;;;18.90;52.60;;;;;;5054897;28;20471;-71
2023/12/03 04:41:43;;;;;;;31.50;30.40;;;18.90;52.60;;;;;;5054361;28;20492;-72
2023/12/03 04:44:10;;;;;;;31.70;30.60;;;18.90;52.50;;;;;;5054513;28;20436;-71
2023/12/03 04:46:40;;;;;;;31.43;30.37;;;18.90;52.50;;;;;;5054577;28;20480;-71
2023/12/03 04:49:07;;;;;;;31.87;30.70;;;18.90;53.00;;;;;;5054474;28;20444;-71
2023/12/03 04:51:34;;;;;;;32.27;31.07;;;18.90;52.50;;;;;;5054003;28;20467;-72
2023/12/03 04:54:01;;;;;;;32.50;31.40;;;18.90;52.60;;;;;;5054299;28;20480;-71
2023/12/03 04:56:28;;;;;;;32.07;30.97;;;18.80;52.50;;;;;;5054250;28;20506;-72
2023/12/03 04:58:57;;;;;;;32.30;31.10;;;18.90;52.60;;;;;;5054230;28;20472;-72
2023/12/03 05:01:23;;;;;;;32.30;31.20;;;18.80;52.60;;;;;;5054015;28;20495;-71
2023/12/03 05:03:50;;;;;;;32.80;31.70;;;18.90;52.60;;;;;;5054079;28;20986;-72
2023/12/03 05:06:17;;;;;;;32.70;31.47;;;18.80;52.50;;;;;;5054101;28;20876;-71
2023/12/03 05:08:44;;;;;;;32.03;30.93;;;18.80;52.60;;;;;;5053123;28;20440;-72
2023/12/03 05:11:11;;;;;;;32.90;31.70;;;18.80;52.60;;;;;;5053509;28;20495;-72
2023/12/03 05:13:38;;;;;;;32.03;30.90;;;18.80;52.60;;;;;;5053945;28;20476;-72
2023/12/03 05:16:07;;;;;;;32.57;31.37;;;18.80;52.60;;;;;;5053747;28;20507;-72
2023/12/03 05:18:34;;;;;;;31.87;30.77;;;18.80;52.70;;;;;;5054187;28;20535;-71
2023/12/03 05:21:01;;;;;;;33.10;31.80;;;18.80;52.70;;;;;;5053457;28;20503;-71
2023/12/03 05:23:28;;;;;;;31.57;30.57;;;18.80;52.80;;;;;;5053943;28;20870;-72
2023/12/03 05:25:57;;;;;;;31.80;30.70;;;18.80;52.80;;;;;;5053704;28;20523;-72
2023/12/03 05:28:24;;;;;;;31.93;30.63;;;18.80;52.70;;;;;;5053855;28;20532;-71
2023/12/03 05:30:51;;;;;;;31.70;30.67;;;18.80;52.70;;;;;;5053290;28;20490;-72
2023/12/03 05:33:19;;;;;;;32.30;31.20;;;18.80;52.70;;;;;;5053650;28;20472;-71
2023/12/03 05:35:46;;;;;;;31.70;30.70;;;18.80;52.70;;;;;;5053617;28;20515;-71
2023/12/03 05:38:13;;;;;;;33.00;31.80;;;18.80;52.70;;;;;;5053562;28;20956;-71
2023/12/03 05:40:40;;;;;;;32.00;30.90;;;18.80;52.80;;;;;;5053057;28;20502;-71
2023/12/03 05:43:07;;;;;;;33.00;31.80;;;18.80;52.80;;;;;;5053253;28;20479;-71
2023/12/03 05:45:34;;;;;;;32.33;31.23;;;18.80;52.90;;;;;;5053412;28;20444;-72
2023/12/03 05:48:01;;;;;;;32.70;31.50;;;18.80;52.90;;;;;;5053482;28;20883;-71
2023/12/03 05:50:29;;;;;;;32.17;30.97;;;18.80;52.90;;;;;;5053048;28;20467;-71
2023/12/03 05:52:56;;;;;;;32.27;31.17;;;18.70;52.90;;;;;;5053008;28;20448;-72
2023/12/03 05:55:23;;;;;;;32.50;31.40;;;18.70;53.00;;;;;;5053180;28;20475;-71
2023/12/03 05:57:50;;;;;;;31.70;30.60;;;18.80;53.10;;;;;;5053413;28;20471;-72
2023/12/03 06:00:19;;;;;;;31.93;30.83;;;18.70;53.00;;;;;;5052857;28;20499;-72
2023/12/03 06:02:46;;;;;;;31.70;30.60;;;18.70;53.00;;;;;;5052990;28;20454;-71
2023/12/03 06:05:13;;;;;;;31.77;30.67;;;18.70;53.10;;;;;;5052961;28;20473;-71
2023/12/03 06:07:41;;;;;;;33.07;31.83;;;18.70;53.30;;;;;;5053098;28;20855;-72
2023/12/03 06:10:08;;;;;;;32.17;30.97;;;18.70;53.40;;;;;;5052605;28;20488;-72
2023/12/03 06:12:35;;;;;;;31.00;30.00;;;18.70;53.50;;;;;;5052804;28;20444;-71
2023/12/03 06:15:03;;;;;;;31.50;30.40;;;18.70;53.40;;;;;;5053090;28;20859;-71
2023/12/03 06:17:30;;;;;;;32.30;31.10;;;18.70;53.40;;;;;;5052487;28;21002;-71
2023/12/03 06:19:57;;;;;;;31.47;30.37;;;18.70;53.40;;;;;;5051503;28;20492;-71
2023/12/03 06:22:24;;;;;;;32.07;30.97;;;18.70;53.40;;;;;;5052736;28;20479;-71
2023/12/03 06:24:52;;;;;;;32.50;31.40;;;18.70;53.40;;;;;;5052951;28;20443;-71
2023/12/03 06:27:19;;;;;;;32.20;31.10;;;18.70;53.40;;;;;;5044683;28;20471;-71
2023/12/03 06:29:46;;;;;;;32.53;31.43;;;18.70;53.40;;;;;;5052593;28;20440;-72
2023/12/03 06:32:13;;;;;;;32.83;31.73;;;18.70;54.00;;;;;;5052365;28;20468;-71
2023/12/03 06:34:40;;;;;;;32.57;31.27;;;18.70;53.40;;;;;;5052588;28;20479;-71
2023/12/03 06:37:08;;;;;;;33.13;32.00;;;18.70;53.30;;;;;;5052222;28;20935;-71
2023/12/03 06:39:35;;;;;;;32.67;31.47;;;18.70;53.30;;;;;;5052058;28;20455;-72
2023/12/03 06:42:03;;;;;;;31.87;30.70;;;18.70;53.20;;;;;;5052179;28;20494;-71
2023/12/03 06:44:30;;;;;;;31.23;30.17;;;18.70;53.20;;;;;;5052366;28;20476;-71
2023/12/03 06:46:57;;;;;;;32.40;30.90;;;18.70;53.10;;;;;;5051934;28;20436;-71
2023/12/03 06:49:24;;;;;;;30.97;29.97;;;18.60;53.10;;;;;;5052193;28;20487;-72
2023/12/03 06:51:51;;;;;;;32.27;31.00;;;18.60;53.10;;;;;;5052055;28;20464;-71
2023/12/03 06:54:18;;;;;;;31.60;30.50;;;18.60;53.00;;;;;;5052174;28;20441;-71
2023/12/03 06:56:45;;;;;;;31.77;30.67;;;18.60;53.10;;;;;;5051792;28;20511;-72
2023/12/03 06:59:13;;;;;;;32.00;30.90;;;18.60;53.10;;;;;;5051986;28;20440;-71
2023/12/03 07:01:40;;;;;;;31.37;30.23;;;18.60;53.00;;;;;;5051964;28;21002;-71
2023/12/03 07:04:07;;;;;;;31.70;30.60;;;18.60;53.00;;;;;;5052065;28;20444;-72
2023/12/03 07:06:34;;;;;;;32.10;31.00;;;18.60;53.10;;;;;;5051678;28;20468;-71
2023/12/03 07:09:00;;;;;;;32.67;31.47;;;18.60;53.10;;;;;;5051768;28;20613;-72
2023/12/03 07:11:29;;;;;;;32.87;31.67;;;18.60;53.10;;;;;;5051730;28;20491;-71
2023/12/03 07:13:56;;;;;;;32.00;30.97;;;18.60;53.20;;;;;;5051909;28;20493;-71
2023/12/03 07:16:24;;;;;;;32.30;31.20;;;18.60;53.20;;;;;;5051345;28;20508;-72
2023/12/03 07:18:51;;;;;;;32.27;31.10;;;18.60;53.10;;;;;;5051658;28;20476;-71
2023/12/03 07:21:18;;;;;;;32.37;31.17;;;18.60;53.70;;;;;;5051469;28;20553;-71
2023/12/03 07:23:45;;;;;;;32.10;30.90;;;18.60;53.20;;;;;;5051846;28;20479;-71
2023/12/03 07:26:12;;;;;;;32.30;31.20;;;18.60;53.10;;;;;;5051217;28;20448;-72
2023/12/03 07:28:39;;;;;;;31.67;30.57;;;18.60;53.20;;;;;;5051501;28;20498;-72
2023/12/03 07:31:06;;;;;;;32.43;31.10;;;18.60;53.20;;;;;;5051088;28;20464;-73
2023/12/03 07:33:40;;;;;;;32.20;31.00;;;18.60;53.30;;;;;;5051704;28;20872;-75
2023/12/03 07:36:09;;;;;;;32.93;31.53;;;18.70;54.00;;;;;;5051145;28;20870;-71
2023/12/03 07:38:39;;;;;;;32.20;31.10;;;18.80;54.00;;;;;;5051439;28;20449;-70
2023/12/03 07:41:11;;;;;;;32.20;31.10;;;18.90;53.10;;;;;;5051646;28;20890;-76
2023/12/03 07:43:44;;;;;;;34.10;32.90;;;19.00;52.80;;;;;;5053832;28;20448;-77
2023/12/03 07:46:18;;;;;;;32.57;31.37;;;19.10;52.90;;;;;;5052137;28;20444;-75
2023/12/03 07:48:46;;;;;;;33.00;31.80;;;19.20;53.30;;;;;;5053792;28;20510;-82
2023/12/03 07:51:17;;;;;;;33.63;32.43;;;19.30;54.40;;;;;;5059705;28;20890;-79
2023/12/03 07:53:45;;;;;;;31.50;30.40;;;19.40;54.30;;;;;;5055056;28;20861;-78
2023/12/03 07:56:12;;;;;;;32.13;31.03;;;19.40;54.30;;;;;;5052948;28;20480;-77
2023/12/03 08:01:28;;;;;;;33.10;32.00;;;19.60;54.00;;;;;;5045218;28;20456;-79
2023/12/03 08:03:57;;;;;;;32.67;31.47;;;19.60;53.70;;;;;;5053648;28;20445;-78
2023/12/03 08:06:25;;;;;;;32.40;31.27;;;19.60;53.70;;;;;;5045146;28;20436;-79
2023/12/03 08:08:57;;;;;;;31.87;30.87;;;19.70;54.10;;;;;;5052253;28;20441;-78
2023/12/03 08:11:25;;;;;;;33.07;31.97;;;19.70;53.70;;;;;;5044969;28;21048;-79
2023/12/03 08:13:56;;;;;;;32.40;31.40;;;19.80;53.60;;;;;;5052272;28;20471;-79
2023/12/03 08:16:28;;;;;;;32.80;31.60;;;19.80;53.40;;;;;;5043437;28;21323;-78
2023/12/03 08:19:02;;;;;;;32.13;31.10;;;19.90;53.40;;;;;;5052819;28;20448;-79
2023/12/03 08:21:32;;;;;;;32.20;31.00;;;20.00;53.20;;;;;;5047850;28;20488;-79
2023/12/03 08:24:09;;;;;;;32.53;31.43;;;20.00;53.10;;;;;;5051036;28;20663;-74
2023/12/03 08:26:36;;;;;;;32.57;31.47;;;20.00;52.90;;;;;;5050683;28;20436;-74
2023/12/03 08:29:09;;;;;;;32.93;31.73;;;20.10;52.70;;;;;;5050693;28;20440;-74
2023/12/03 08:31:37;;;;;;;32.50;31.40;;;20.10;52.70;;;;;;5050792;28;20464;-75
2023/12/03 08:34:08;;;;;;;32.80;31.70;;;20.20;52.70;;;;;;5049626;28;20444;-74
2023/12/03 08:36:39;;;;;;;32.93;31.83;;;20.30;52.50;;;;;;5050925;28;20486;-75
2023/12/03 08:39:08;;;;;;;32.40;31.30;;;20.30;52.90;;;;;;5050809;28;20444;-75
2023/12/03 08:41:35;;;;;;;33.90;32.70;;;20.30;52.30;;;;;;5050473;28;20537;-75
2023/12/03 08:44:02;;;;;;;32.70;31.60;;;20.40;52.30;;;;;;5053881;28;20955;-75
2023/12/03 08:46:29;;;;;;;32.70;31.70;;;20.40;52.10;;;;;;5054400;28;20440;-75
2023/12/03 08:48:56;;;;;;;32.80;31.70;;;20.40;52.00;;;;;;5054570;28;20446;-75
2023/12/03 08:51:24;;;;;;;33.07;31.93;;;20.50;52.00;;;;;;5045948;28;20498;-75
2023/12/03 08:53:51;;;;;;;33.00;31.90;;;20.50;51.90;;;;;;5054488;28;20475;-75
2023/12/03 08:56:18;;;;;;;34.10;32.87;;;20.60;51.90;;;;;;5054046;28;20527;-75
2023/12/03 08:58:45;;;;;;;33.10;32.00;;;20.60;51.80;;;;;;5054356;28;20452;-75
2023/12/03 09:01:12;;;;;;;33.50;32.37;;;20.70;51.90;;;;;;5053929;28;21048;-75
2023/12/03 09:03:40;;;;;;;32.53;31.43;;;20.70;51.70;;;;;;5054300;28;20468;-75
2023/12/03 09:06:07;;;;;;;32.77;31.67;;;20.70;51.70;;;;;;5053843;28;20501;-75
2023/12/03 09:08:36;;;;;;;33.80;32.63;;;20.70;51.70;;;;;;5054190;28;20468;-74
2023/12/03 09:11:10;;;;;;;33.33;32.03;;;20.80;51.90;;;;;;5053578;28;20502;-74
2023/12/03 09:13:38;;;;;;;33.77;32.57;;;20.80;51.80;;;;;;5053859;28;20440;-77
2023/12/03 09:16:05;;;;;;;32.37;31.17;;;20.80;51.60;;;;;;5053982;28;20447;-75
2023/12/03 09:18:34;;;;;;;32.50;31.40;;;20.90;51.50;;;;;;5054008;28;20511;-75
2023/12/03 09:21:01;;;;;;;32.90;31.80;;;20.90;51.20;;;;;;5053759;28;20471;-77
2023/12/03 09:23:28;;;;;;;32.80;31.60;;;20.90;50.90;;;;;;5053504;28;20476;-76
2023/12/03 09:25:57;;;;;;;33.60;32.50;;;21.00;51.00;;;;;;5053849;28;20446;-76
2023/12/03 09:28:24;;;;;;;32.87;31.30;;;21.00;50.80;;;;;;5046177;28;20475;-75
2023/12/03 09:30:51;;;;;;;32.10;31.00;;;21.00;50.80;;;;;;5053931;28;20464;-75
2023/12/03 09:33:20;;;;;;;32.57;31.47;;;21.10;50.70;;;;;;5053537;28;20476;-75
2023/12/03 09:35:47;;;;;;;33.20;32.10;;;21.10;50.30;;;;;;5052989;28;20464;-75
2023/12/03 09:38:14;;;;;;;32.93;31.83;;;21.10;50.00;;;;;;5054379;28;20472;-76
2023/12/03 09:40:41;;;;;;;32.40;31.30;;;21.10;50.10;;;;;;5054980;28;21103;-76
2023/12/03 09:43:10;;;;;;;32.70;31.50;;;21.20;50.10;;;;;;5053488;28;20441;-76
2023/12/03 09:45:38;;;;;;;32.10;31.10;;;21.20;49.80;;;;;;5053424;28;21065;-75
2023/12/03 09:48:08;;;;;;;31.90;30.80;;;21.20;49.80;;;;;;5053457;28;20530;-74
2023/12/03 09:50:37;;;;;;;32.00;30.93;;;21.20;49.70;;;;;;5053619;28;20506;-75
2023/12/03 09:53:07;;;;;;;33.20;32.00;;;21.20;49.50;;;;;;5052941;28;20480;-76
2023/12/03 09:55:35;;;;;;;32.80;31.60;;;21.30;49.50;;;;;;5053911;28;20800;-75
2023/12/03 09:58:03;;;;;;;33.40;32.20;;;21.30;49.20;;;;;;5053653;28;20503;-78
2023/12/03 10:00:32;;;;;;;32.60;31.50;;;21.30;49.10;;;;;;5053972;28;20460;-73
2023/12/03 10:02:59;;;;;;;33.03;31.90;;;21.40;49.70;;;;;;5053147;28;20444;-72
2023/12/03 10:05:26;;;;;;;32.43;31.33;;;21.40;49.60;;;;;;5045398;28;20972;-75
2023/12/03 10:07:54;;;;;;;33.50;32.20;;;21.50;49.10;;;;;;5053082;28;20437;-74
2023/12/03 10:10:22;;;;;;;32.43;31.33;;;21.50;49.00;;;;;;5052665;28;20547;-74
2023/12/03 10:12:51;;;;;;;32.90;31.73;;;21.50;48.90;;;;;;5052864;28;20464;-76
2023/12/03 10:15:18;;;;;;;33.03;31.83;;;21.50;48.90;;;;;;5053187;28;20895;-75
2023/12/03 10:17:47;;;;;;;32.03;30.97;;;21.50;48.70;;;;;;5053478;28;20546;-75
2023/12/03 10:20:28;;;;;;;32.10;31.00;;;21.60;49.30;;;;;;5052548;28;20491;-75
2023/12/03 10:22:58;;;;;;;32.87;31.67;;;21.60;48.10;;;;;;5052485;28;20943;-75
2023/12/03 10:25:29;;;;;;;33.27;32.03;;;21.60;46.30;;;;;;5052719;28;20437;-73
2023/12/03 10:27:57;;;;;;;32.30;31.20;;;21.60;50.80;;;;;;5053083;28;20490;-70
2023/12/03 10:30:25;;;;;;;33.00;31.90;;;21.70;49.00;;;;;;5052483;28;21036;-69
2023/12/03 10:32:53;;;;;;;32.47;31.37;;;21.70;48.70;;;;;;5052540;28;20501;-68
2023/12/03 10:35:21;;;;;;;32.70;31.50;;;21.70;48.60;;;;;;5052620;28;20479;-69
2023/12/03 10:37:48;;;;;;;34.13;32.83;;;21.70;48.20;;;;;;5052365;28;20487;-68
2023/12/03 10:40:16;;;;;;;33.57;32.37;;;21.70;47.90;;;;;;5052274;28;20472;-70
2023/12/03 10:42:44;;;;;;;32.93;31.63;;;21.70;47.90;;;;;;5053355;28;20476;-72
2023/12/03 10:45:13;;;;;;;33.20;31.90;;;21.70;48.50;;;;;;5054683;28;20482;-72
2023/12/03 10:47:40;;;;;;;32.97;31.87;;;21.70;48.20;;;;;;5052452;28;20472;-72
2023/12/03 10:50:10;;;;;;;33.23;32.03;;;21.70;47.90;;;;;;5052312;28;20496;-70
2023/12/03 10:52:39;;;;;;;34.30;33.00;;;21.70;47.90;;;;;;5053178;28;20483;-71
2023/12/03 10:55:07;;;;;;;34.17;32.80;;;21.70;47.80;;;;;;5053917;28;20932;-74
2023/12/03 10:57:38;;;;;;;34.00;32.80;;;21.70;47.70;;;;;;5052631;28;20483;-77
2023/12/03 11:00:09;;;;;;;33.17;31.87;;;21.80;47.80;;;;;;5052042;28;20505;-75
2023/12/03 11:02:46;;;;;;;32.20;30.90;;;21.70;48.00;;;;;;5052180;28;20506;-73
2023/12/03 11:05:21;;;;;;;32.87;31.77;;;21.70;48.10;;;;;;5051362;28;20478;-73
2023/12/03 11:07:50;;;;;;;32.50;31.40;;;21.80;48.20;;;;;;5051920;28;20444;-74
2023/12/03 11:10:17;;;;;;;33.70;32.50;;;21.80;47.90;;;;;;5051816;28;20491;-75
2023/12/03 11:12:44;;;;;;;30.73;29.73;;;21.80;48.00;;;;;;5051972;28;20472;-70
2023/12/03 11:15:12;;;;;;;33.37;32.07;;;21.90;48.80;;;;;;5051916;28;20444;-72
2023/12/03 11:17:41;;;;;;;33.00;31.80;;;21.90;48.20;;;;;;5052185;28;20510;-70
2023/12/03 11:20:13;;;;;;;32.57;31.37;;;22.00;48.30;;;;;;5051559;28;20971;-69
2023/12/03 11:22:56;;;;;;;32.50;31.40;;;22.00;48.30;;;;;;5052094;28;20476;-71
2023/12/03 11:25:28;;;;;;;32.67;31.57;;;22.00;47.90;;;;;;5052057;28;20475;-70
2023/12/03 11:27:55;;;;;;;33.10;31.90;;;22.00;47.70;;;;;;5051510;28;20451;-70
2023/12/03 11:30:37;;;;;;;32.33;31.23;;;22.00;47.70;;;;;;5051824;28;20551;-68
2023/12/03 11:33:08;;;;;;;33.20;31.80;;;22.00;47.60;;;;;;5051622;28;20479;-69
2023/12/03 11:35:35;;;;;;;32.67;31.47;;;22.00;47.50;;;;;;5051689;28;20455;-70
2023/12/03 11:38:03;;;;;;;32.70;31.60;;;22.00;47.90;;;;;;5051637;28;20927;-70
2023/12/03 11:40:34;;;;;;;32.90;31.80;;;22.10;48.20;;;;;;5047133;28;20468;-69
2023/12/03 11:43:01;;;;;;;33.80;32.70;;;22.20;48.10;;;;;;5051586;28;20931;-74
2023/12/03 11:45:29;;;;;;;32.93;31.83;;;22.20;48.50;;;;;;5051358;28;20440;-72
2023/12/03 11:48:05;;;;;;;32.00;30.90;;;22.30;48.40;;;;;;5051198;28;20450;-69
2023/12/03 11:50:33;;;;;;;33.00;31.90;;;22.20;48.30;;;;;;5045776;28;20483;-70
2023/12/03 11:53:00;;;;;;;32.37;31.17;;;22.20;48.20;;;;;;5051092;28;21133;-69
2023/12/03 11:55:32;;;;;;;33.07;31.83;;;22.10;47.90;;;;;;5051225;28;20464;-69
2023/12/03 11:57:59;;;;;;;32.77;31.60;;;22.00;47.70;;;;;;5051358;28;20901;-69
2023/12/03 12:02:51;;;;;;;28.80;27.90;;;22.00;47.70;;;;;;5109512;27;20540;-70
2023/12/03 12:05:18;;;;;;;29.83;28.83;;;22.10;47.70;;;;;;5109375;28;20469;-67
2023/12/03 12:07:57;;;;;;;29.27;28.37;;;22.10;47.60;;;;;;5109457;28;20440;-70
2023/12/03 12:10:24;;;;;;;29.77;28.73;;;22.10;47.40;;;;;;5108658;28;20461;-71
2023/12/03 12:12:51;;;;;;;28.77;27.87;;;22.20;48.00;;;;;;5109181;28;20466;-70
2023/12/03 12:15:18;;;;;;;28.70;27.80;;;22.20;48.00;;;;;;5109112;28;20473;-69
2023/12/03 12:17:45;;;;;;;29.60;28.60;;;22.30;48.30;;;;;;5109366;28;20469;-68
2023/12/03 12:20:23;;;;;;;29.30;28.40;;;22.40;48.40;;;;;;5108319;28;20488;-67
2023/12/03 12:22:51;;;;;;;29.33;28.43;;;22.40;48.40;;;;;;5108903;28;20498;-69
2023/12/03 12:25:18;;;;;;;29.33;28.43;;;22.50;48.40;;;;;;5108974;28;20438;-67
2023/12/03 12:27:45;;;;;;;29.50;28.43;;;22.50;48.30;;;;;;5109105;28;20464;-67
2023/12/03 12:30:15;;;;;;;29.73;28.73;;;22.50;48.20;;;;;;5107938;28;20489;-66
2023/12/03 12:32:42;;;;;;;29.60;28.60;;;22.50;48.10;;;;;;5108733;28;20434;-67
2023/12/03 12:35:09;;;;;;;29.47;28.57;;;22.60;48.20;;;;;;5108590;28;20473;-66
2023/12/03 12:37:38;;;;;;;29.60;28.60;;;22.60;48.10;;;;;;5108924;28;20442;-67